TimeEST,TemperatureF,Dew PointF,Humidity,Sea Level PressureIn,VisibilityMPH,Wind Direction,Wind SpeedMPH,Gust SpeedMPH,PrecipitationIn,Events,Conditions,WindDirDegrees,DateUTC
12:53 AM,30.0,19.0,64,29.82,10.0,West,24.2,32.2,N/A,,Overcast,260,2014-01-15 05:53:00
1:53 AM,28.9,18.0,64,29.82,10.0,WSW,19.6,26.5,N/A,,Overcast,250,2014-01-15 06:53:00
2:53 AM,28.0,16.0,61,29.85,10.0,WSW,26.5,34.5,N/A,,Overcast,250,2014-01-15 07:53:00
3:53 AM,27.0,18.0,69,29.87,10.0,West,17.3,26.5,N/A,,Overcast,260,2014-01-15 08:53:00
4:09 AM,26.6,17.6,69,29.86,10.0,WSW,23.0,28.8,N/A,,Overcast,250,2014-01-15 09:09:00
4:38 AM,26.6,19.4,74,29.86,8.0,West,20.7,31.1,0.00,Snow,Light Snow,260,2014-01-15 09:38:00
4:53 AM,26.1,18.0,71,29.88,9.0,West,21.9,29.9,0.00,,Overcast,270,2014-01-15 09:53:00
5:06 AM,26.6,15.8,64,29.87,10.0,West,17.3,26.5,N/A,,Overcast,270,2014-01-15 10:06:00
5:53 AM,25.0,16.0,69,29.90,10.0,West,19.6,27.6,0.00,,Overcast,260,2014-01-15 10:53:00
6:53 AM,24.1,15.1,69,29.92,10.0,West,18.4,25.3,N/A,,Clear,270,2014-01-15 11:53:00
7:53 AM,23.0,15.1,72,29.94,10.0,West,17.3,-,N/A,,Clear,260,2014-01-15 12:53:00
8:53 AM,24.1,16.0,71,29.98,10.0,WSW,15.0,-,N/A,,Overcast,240,2014-01-15 13:53:00
9:53 AM,25.0,16.0,69,30.00,10.0,WSW,19.6,-,N/A,,Overcast,250,2014-01-15 14:53:00
10:18 AM,24.8,15.8,69,29.99,10.0,West,16.1,-,N/A,,Overcast,260,2014-01-15 15:18:00
10:53 AM,25.0,16.0,69,30.02,10.0,WSW,17.3,21.9,N/A,,Overcast,250,2014-01-15 15:53:00
11:06 AM,24.8,15.8,69,30.00,10.0,WSW,19.6,-,N/A,,Overcast,250,2014-01-15 16:06:00
11:53 AM,26.1,17.1,69,30.01,10.0,West,17.3,-,N/A,,Overcast,260,2014-01-15 16:53:00
12:38 PM,26.6,15.8,64,29.98,10.0,WSW,13.8,19.6,N/A,,Overcast,240,2014-01-15 17:38:00
12:53 PM,27.0,15.1,61,29.99,10.0,WSW,13.8,-,N/A,,Overcast,250,2014-01-15 17:53:00
1:12 PM,26.6,14.0,59,29.97,10.0,West,15.0,-,N/A,,Overcast,260,2014-01-15 18:12:00
1:53 PM,28.0,14.0,56,29.99,10.0,WSW,15.0,-,N/A,,Overcast,240,2014-01-15 18:53:00
2:53 PM,26.1,15.1,63,30.00,10.0,West,12.7,-,N/A,,Overcast,270,2014-01-15 19:53:00
3:23 PM,26.6,15.8,64,29.98,10.0,West,13.8,-,N/A,,Overcast,270,2014-01-15 20:23:00
3:53 PM,26.1,15.1,63,30.01,10.0,WSW,11.5,-,0.00,,Overcast,250,2014-01-15 20:53:00
4:19 PM,26.6,15.8,64,29.99,10.0,WSW,11.5,-,N/A,,Overcast,240,2014-01-15 21:19:00
4:53 PM,25.0,16.0,69,30.02,10.0,WSW,12.7,-,N/A,,Overcast,250,2014-01-15 21:53:00
5:53 PM,24.1,17.1,75,30.04,9.0,West,13.8,-,0.00,Snow,Light Snow,260,2014-01-15 22:53:00
6:53 PM,24.1,16.0,71,30.05,10.0,WSW,13.8,-,0.00,,Overcast,250,2014-01-15 23:53:00
7:53 PM,21.9,15.1,75,30.04,10.0,SW,8.1,-,N/A,,Partly Cloudy,230,2014-01-16 00:53:00
8:53 PM,21.9,17.1,82,30.05,6.0,SW,11.5,17.3,0.00,Snow,Light Snow,230,2014-01-16 01:53:00
9:12 PM,21.2,15.8,80,30.02,10.0,WSW,10.4,-,0.00,,Overcast,240,2014-01-16 02:12:00
9:48 PM,21.2,14.0,74,30.02,10.0,SW,13.8,-,0.00,,Overcast,230,2014-01-16 02:48:00
9:53 PM,21.9,14.0,72,30.05,10.0,SW,12.7,-,0.00,,Overcast,230,2014-01-16 02:53:00
10:53 PM,21.9,14.0,72,30.03,8.0,SW,12.7,-,0.00,Snow,Light Snow,220,2014-01-16 03:53:00
11:53 PM,21.0,14.0,74,30.02,7.0,WSW,13.8,-,0.00,Snow,Light Snow,250,2014-01-16 04:53:00